createdAt,value
2022-08-17T00:02:26.092Z,1.20
2022-08-17T00:04:55.141Z,0.85
2022-08-17T00:07:23.066Z,0.90
2022-08-17T00:09:50.424Z,1.20
2022-08-17T00:12:43.317Z,0.85
2022-08-17T00:15:06.374Z,0.77
2022-08-17T00:17:38.118Z,0.70
2022-08-17T00:20:05.857Z,0.65
2022-08-17T00:22:36.401Z,0.50
2022-08-17T00:25:10.393Z,1.02
2022-08-17T00:27:37.374Z,0.80
2022-08-17T00:30:07.238Z,0.80
2022-08-17T00:33:15.778Z,0.82
2022-08-17T00:35:30.395Z,0.93
2022-08-17T00:37:57.373Z,0.80
2022-08-17T00:40:24.573Z,0.60
2022-08-17T00:42:53.578Z,0.50
2022-08-17T00:45:20.742Z,0.85
2022-08-17T00:47:47.921Z,0.93
2022-08-17T00:50:17.866Z,0.52
2022-08-17T00:52:56.527Z,0.80
2022-08-17T00:55:25.663Z,0.80
2022-08-17T00:57:58.631Z,0.60
2022-08-17T01:00:36.183Z,0.75
2022-08-17T01:03:10.770Z,0.68
2022-08-17T01:05:42.143Z,0.82
2022-08-17T01:08:13.257Z,0.50
2022-08-17T01:10:58.481Z,0.50
2022-08-17T01:13:40.331Z,0.93
2022-08-17T01:16:29.823Z,1.10
2022-08-17T01:19:05.311Z,0.65
2022-08-17T01:21:56.920Z,0.47
2022-08-17T01:24:24.301Z,0.50
2022-08-17T01:26:51.326Z,0.63
2022-08-17T01:29:20.424Z,0.43
2022-08-17T01:31:56.892Z,0.60
2022-08-17T01:34:37.376Z,0.50
2022-08-17T01:37:11.541Z,0.95
2022-08-17T01:39:50.586Z,0.68
2022-08-17T01:42:30.904Z,0.80
2022-08-17T01:45:02.255Z,0.98
2022-08-17T01:47:29.853Z,0.75
2022-08-17T01:49:58.349Z,1.05
2022-08-17T01:52:25.356Z,0.90
2022-08-17T01:54:53.467Z,0.90
2022-08-17T01:57:20.489Z,1.00
2022-08-17T01:59:47.847Z,0.70
2022-08-17T02:02:31.358Z,0.60
2022-08-17T02:04:59.060Z,1.20
2022-08-17T02:07:27.079Z,0.80
2022-08-17T02:09:54.584Z,1.45
2022-08-17T02:12:37.603Z,0.60
2022-08-17T02:15:07.991Z,0.65
2022-08-17T02:17:35.289Z,0.70
2022-08-17T02:20:02.469Z,0.50
2022-08-17T02:22:29.648Z,0.40
2022-08-17T02:24:59.705Z,0.70
2022-08-17T02:27:29.238Z,0.93
2022-08-17T02:29:56.305Z,0.60
2022-08-17T02:32:27.940Z,0.60
2022-08-17T02:34:58.422Z,0.65
2022-08-17T02:37:27.238Z,0.60
2022-08-17T02:39:57.227Z,0.80
2022-08-17T02:42:34.787Z,0.50
2022-08-17T02:47:29.972Z,0.60
2022-08-17T02:49:57.059Z,0.50
2022-08-17T02:52:42.646Z,0.50
2022-08-17T02:55:19.479Z,0.90
2022-08-17T02:57:47.080Z,0.90
2022-08-17T03:00:21.298Z,0.73
2022-08-17T03:02:49.154Z,0.80
2022-08-17T03:05:20.728Z,0.57
2022-08-17T03:07:48.047Z,0.52
2022-08-17T03:10:15.489Z,1.23
2022-08-17T03:12:43.491Z,0.70
2022-08-17T03:15:23.270Z,1.35
2022-08-17T03:17:52.169Z,0.50
2022-08-17T03:20:20.714Z,0.40
2022-08-17T03:22:53.622Z,0.30
2022-08-17T03:25:27.998Z,0.82
2022-08-17T03:27:56.865Z,0.50
2022-08-17T03:30:25.554Z,0.32
2022-08-17T03:32:55.298Z,0.82
2022-08-17T03:35:27.086Z,0.80
2022-08-17T03:38:00.669Z,0.63
2022-08-17T03:40:55.260Z,0.82
2022-08-17T03:43:17.270Z,0.50
2022-08-17T03:46:02.542Z,0.80
2022-08-17T03:48:48.353Z,0.68
2022-08-17T03:51:41.093Z,0.63
2022-08-17T03:54:28.445Z,0.30
2022-08-17T03:57:10.186Z,0.90
2022-08-17T03:59:38.409Z,0.40
2022-08-17T04:02:13.158Z,0.50
2022-08-17T04:04:40.537Z,0.60
2022-08-17T04:07:07.994Z,0.50
2022-08-17T04:09:35.163Z,0.75
2022-08-17T04:12:04.745Z,0.47
2022-08-17T04:14:51.468Z,0.20
2022-08-17T04:17:24.969Z,0.30
2022-08-17T04:19:52.303Z,0.20
2022-08-17T04:22:30.353Z,0.20
2022-08-17T04:25:02.786Z,0.50
2022-08-17T04:27:29.969Z,0.95
2022-08-17T04:29:57.027Z,0.10
2022-08-17T04:32:25.201Z,0.20
2022-08-17T04:35:11.419Z,0.28
2022-08-17T04:37:38.434Z,0.13
2022-08-17T04:40:26.505Z,0.20
2022-08-17T04:43:12.972Z,0.25
2022-08-17T04:46:08.053Z,0.20
2022-08-17T04:48:44.221Z,0.30
2022-08-17T04:51:24.378Z,0.20
2022-08-17T04:53:55.013Z,0.20
2022-08-17T04:56:23.821Z,0.10
2022-08-17T04:58:52.879Z,0.10
2022-08-17T05:01:23.994Z,0.10
2022-08-17T05:03:53.755Z,0.10
2022-08-17T05:06:21.168Z,0.10
2022-08-17T05:08:48.251Z,0.10
2022-08-17T05:11:15.945Z,0.10
2022-08-17T05:13:43.593Z,0.40
2022-08-17T05:16:10.999Z,0.35
2022-08-17T05:18:39.025Z,0.20
2022-08-17T05:21:07.093Z,0.00
2022-08-17T05:23:42.765Z,0.10
2022-08-17T05:28:53.168Z,0.10
2022-08-17T05:31:21.475Z,0.40
2022-08-17T05:33:49.585Z,0.10
2022-08-17T05:36:43.022Z,0.10
2022-08-17T05:39:04.237Z,0.25
2022-08-17T05:41:31.448Z,0.22
2022-08-17T05:43:58.476Z,0.20
2022-08-17T05:46:36.027Z,0.10
2022-08-17T05:49:08.057Z,0.30
2022-08-17T05:51:55.906Z,0.30
2022-08-17T05:54:55.237Z,0.20
2022-08-17T05:57:56.894Z,0.10
2022-08-17T06:01:03.749Z,0.20
2022-08-17T06:03:59.743Z,0.20
2022-08-17T06:06:44.919Z,0.28
2022-08-17T06:09:36.565Z,0.20
2022-08-17T06:12:21.879Z,0.20
2022-08-17T06:15:03.923Z,0.20
2022-08-17T06:17:31.636Z,0.20
2022-08-17T06:20:03.886Z,0.20
2022-08-17T06:22:41.912Z,0.10
2022-08-17T06:25:22.910Z,0.30
2022-08-17T06:28:09.495Z,0.20
2022-08-17T06:31:00.154Z,0.30
2022-08-17T06:33:36.227Z,0.32
2022-08-17T06:36:45.178Z,0.55
2022-08-17T06:39:22.182Z,0.20
2022-08-17T06:42:59.888Z,0.30
2022-08-17T06:45:31.395Z,0.30
2022-08-17T06:48:25.078Z,0.40
2022-08-17T06:51:22.342Z,0.52
2022-08-17T06:56:54.115Z,0.20
2022-08-17T06:59:55.025Z,0.75
2022-08-17T07:02:29.421Z,0.32
2022-08-17T07:05:18.539Z,0.40
2022-08-17T07:08:04.051Z,0.45
2022-08-17T07:11:05.422Z,1.42
2022-08-17T07:13:38.586Z,0.65
2022-08-17T07:16:49.093Z,0.30
2022-08-17T07:19:18.463Z,1.63
2022-08-17T07:22:14.104Z,0.28
2022-08-17T07:24:58.749Z,0.32
2022-08-17T07:27:33.936Z,0.38
2022-08-17T07:30:08.125Z,0.20
2022-08-17T07:32:45.438Z,0.25
2022-08-17T07:35:17.824Z,0.40
2022-08-17T07:37:55.850Z,0.20
2022-08-17T07:40:27.146Z,0.57
2022-08-17T07:43:23.035Z,0.40
2022-08-17T07:46:34.271Z,0.15
2022-08-17T07:49:07.624Z,0.20
2022-08-17T07:51:39.800Z,0.28
2022-08-17T07:54:16.005Z,0.20
2022-08-17T07:56:53.831Z,0.15
2022-08-17T07:59:24.902Z,0.30
2022-08-17T08:01:58.166Z,0.10
2022-08-17T08:04:59.361Z,0.20
2022-08-17T08:07:27.005Z,0.10
2022-08-17T08:10:11.000Z,0.25
2022-08-17T08:12:47.631Z,0.30
2022-08-17T08:15:19.776Z,0.20
2022-08-17T08:17:50.878Z,0.13
2022-08-17T08:20:52.762Z,0.30
2022-08-17T08:23:35.441Z,0.22
2022-08-17T08:26:30.502Z,0.47
2022-08-17T08:29:09.356Z,0.13
2022-08-17T08:31:42.354Z,0.20
2022-08-17T08:34:59.016Z,0.20
2022-08-17T08:37:30.491Z,0.20
2022-08-17T08:40:12.547Z,0.20
2022-08-17T08:43:08.425Z,0.88
2022-08-17T08:45:56.779Z,0.20
2022-08-17T08:49:10.189Z,0.38
2022-08-17T08:52:01.098Z,0.20
2022-08-17T08:54:48.060Z,0.28
2022-08-17T08:57:29.380Z,0.15
2022-08-17T09:00:06.106Z,0.28
2022-08-17T09:03:04.152Z,0.20
2022-08-17T09:05:49.247Z,0.30
2022-08-17T09:08:47.402Z,0.30
2022-08-17T09:11:35.715Z,0.40
2022-08-17T09:14:32.695Z,0.20
2022-08-17T09:17:25.549Z,0.40
2022-08-17T09:20:04.367Z,0.40
2022-08-17T09:22:41.793Z,0.40
2022-08-17T09:25:26.462Z,0.20
2022-08-17T09:28:03.864Z,0.30
2022-08-17T09:31:11.554Z,0.40
2022-08-17T09:33:44.415Z,0.38
2022-08-17T09:36:34.830Z,0.30
2022-08-17T09:39:17.482Z,0.20
2022-08-17T09:42:13.969Z,0.28
2022-08-17T09:45:02.947Z,0.30
2022-08-17T09:47:45.531Z,0.60
2022-08-17T09:51:03.798Z,0.30
2022-08-17T09:53:11.743Z,0.30
2022-08-17T09:56:05.977Z,0.25
2022-08-17T09:58:56.943Z,0.63
2022-08-17T10:01:56.267Z,0.20
2022-08-17T10:04:42.141Z,0.30
2022-08-17T10:07:23.370Z,0.20
2022-08-17T10:10:14.418Z,0.30
2022-08-17T10:12:59.034Z,0.30
2022-08-17T10:15:55.190Z,0.20
2022-08-17T10:18:30.368Z,0.30
2022-08-17T10:21:37.320Z,0.20
2022-08-17T10:25:21.187Z,0.15
2022-08-17T10:27:52.389Z,0.20
2022-08-17T10:30:23.322Z,1.05
2022-08-17T10:32:55.845Z,0.20
2022-08-17T10:35:30.770Z,0.40
2022-08-17T10:38:12.723Z,0.30
2022-08-17T10:41:13.627Z,0.35
2022-08-17T10:44:38.120Z,0.20
2022-08-17T10:47:18.076Z,0.10
2022-08-17T10:49:49.759Z,0.30
2022-08-17T10:52:20.151Z,0.32
2022-08-17T10:54:57.896Z,0.30
2022-08-17T10:57:31.892Z,0.22
2022-08-17T11:00:17.995Z,0.30
2022-08-17T11:02:50.612Z,0.20
2022-08-17T11:05:27.712Z,0.30
2022-08-17T11:08:22.579Z,0.35
2022-08-17T11:11:16.486Z,0.55
2022-08-17T11:14:09.986Z,0.35
2022-08-17T11:17:01.290Z,0.40
2022-08-17T11:19:31.357Z,0.40
2022-08-17T11:22:33.330Z,0.40
2022-08-17T11:25:19.371Z,0.30
2022-08-17T11:27:53.809Z,0.17
2022-08-17T11:30:43.574Z,0.40
2022-08-17T11:33:29.764Z,0.20
2022-08-17T11:36:16.163Z,0.60
2022-08-17T11:38:59.907Z,0.43
2022-08-17T11:41:47.159Z,2.05
2022-08-17T11:44:50.600Z,0.40
2022-08-17T11:48:16.037Z,0.30
2022-08-17T11:51:29.370Z,0.32
2022-08-17T11:54:31.154Z,0.30
2022-08-17T11:56:53.014Z,0.50
2022-08-17T11:59:43.911Z,0.55
2022-08-17T12:02:32.501Z,0.50
2022-08-17T12:05:13.242Z,0.43
2022-08-17T12:08:05.712Z,0.35
2022-08-17T12:10:36.025Z,0.77
2022-08-17T12:13:12.823Z,0.50
2022-08-17T12:15:48.834Z,0.57
2022-08-17T12:18:37.743Z,0.38
2022-08-17T12:21:22.404Z,0.60
2022-08-17T12:24:13.847Z,0.40
2022-08-17T12:26:44.139Z,0.50
2022-08-17T12:29:18.101Z,0.50
2022-08-17T12:32:07.035Z,0.40
2022-08-17T12:34:42.004Z,0.40
2022-08-17T12:37:20.612Z,0.30
2022-08-17T12:39:59.741Z,0.30
2022-08-17T12:42:37.582Z,0.30
2022-08-17T12:45:29.620Z,0.40
2022-08-17T12:48:08.726Z,0.50
2022-08-17T12:50:40.969Z,0.40
2022-08-17T12:53:17.452Z,0.63
2022-08-17T12:55:45.772Z,0.20
2022-08-17T12:58:18.081Z,0.50
2022-08-17T13:01:09.320Z,0.45
2022-08-17T13:03:44.226Z,0.30
2022-08-17T13:06:25.545Z,0.38
2022-08-17T13:08:52.659Z,0.38
2022-08-17T13:11:24.666Z,0.50
2022-08-17T13:13:56.111Z,0.30
2022-08-17T13:16:26.824Z,0.32
2022-08-17T13:18:55.649Z,0.47
2022-08-17T13:21:30.781Z,0.40
2022-08-17T13:24:06.507Z,0.40
2022-08-17T13:26:36.871Z,0.30
2022-08-17T13:29:18.559Z,0.45
2022-08-17T13:31:52.827Z,0.50
2022-08-17T13:34:29.725Z,0.40
2022-08-17T13:37:19.350Z,0.60
2022-08-17T13:39:50.149Z,0.30
2022-08-17T13:42:52.357Z,0.52
2022-08-17T13:45:36.872Z,0.43
2022-08-17T13:48:27.181Z,0.40
2022-08-17T13:50:57.129Z,0.25
2022-08-17T13:53:47.684Z,0.50
2022-08-17T13:56:47.688Z,0.35
2022-08-17T13:59:52.776Z,0.30
2022-08-17T14:02:14.892Z,0.22
2022-08-17T14:04:44.355Z,0.40
2022-08-17T14:07:13.026Z,0.40
2022-08-17T14:09:52.873Z,0.35
2022-08-17T14:12:25.111Z,0.45
2022-08-17T14:14:55.082Z,0.93
2022-08-17T14:17:23.353Z,0.70
2022-08-17T14:19:51.370Z,0.50
2022-08-17T14:22:28.032Z,0.40
2022-08-17T14:24:58.671Z,0.60
2022-08-17T14:27:28.275Z,2.38
2022-08-17T14:29:56.550Z,1.45
2022-08-17T14:32:27.155Z,0.32
2022-08-17T14:34:57.765Z,0.40
2022-08-17T14:37:28.056Z,0.60
2022-08-17T14:39:57.441Z,0.40
2022-08-17T14:42:26.584Z,0.30
2022-08-17T14:44:54.888Z,0.50
2022-08-17T14:47:22.036Z,0.40
2022-08-17T14:49:49.493Z,0.20
2022-08-17T14:52:22.605Z,0.28
2022-08-17T14:54:54.186Z,0.50
2022-08-17T14:57:33.052Z,0.10
2022-08-17T15:00:02.187Z,0.38
2022-08-17T15:02:30.918Z,0.40
2022-08-17T15:05:06.152Z,0.30
2022-08-17T15:07:33.188Z,0.60
2022-08-17T15:10:02.096Z,0.30
2022-08-17T15:12:33.295Z,0.30
2022-08-17T15:15:04.808Z,0.40
2022-08-17T15:17:44.485Z,0.47
2022-08-17T15:20:21.452Z,0.30
2022-08-17T15:22:55.754Z,0.45
2022-08-17T15:25:25.498Z,0.30
2022-08-17T15:27:52.911Z,0.30
2022-08-17T15:30:20.821Z,0.60
2022-08-17T15:32:54.565Z,0.40
2022-08-17T15:35:27.920Z,0.50
2022-08-17T15:38:10.568Z,0.40
2022-08-17T15:40:46.323Z,0.30
2022-08-17T15:43:27.236Z,0.63
2022-08-17T15:46:01.998Z,0.68
2022-08-17T15:48:41.697Z,0.55
2022-08-17T15:51:17.649Z,0.30
2022-08-17T15:56:15.023Z,0.30
2022-08-17T15:58:46.920Z,0.32
2022-08-17T16:01:31.349Z,0.40
2022-08-17T16:04:26.426Z,0.50
2022-08-17T16:06:51.683Z,0.20
2022-08-17T16:09:18.730Z,0.40
2022-08-17T16:11:46.156Z,0.50
2022-08-17T16:14:20.836Z,0.50
2022-08-17T16:16:48.249Z,0.40
2022-08-17T16:19:15.637Z,0.43
2022-08-17T16:21:52.809Z,0.50
2022-08-17T16:24:19.726Z,0.40
2022-08-17T16:26:47.214Z,0.30
2022-08-17T16:29:15.351Z,0.50
2022-08-17T16:31:43.368Z,0.38
2022-08-17T16:34:17.924Z,0.38
2022-08-17T16:36:54.584Z,0.50
2022-08-17T16:39:26.925Z,0.43
2022-08-17T16:41:54.253Z,0.35
2022-08-17T16:44:21.914Z,0.30
2022-08-17T16:46:50.438Z,0.60
2022-08-17T16:49:35.896Z,0.40
2022-08-17T16:52:04.718Z,0.47
2022-08-17T16:54:32.015Z,0.47
2022-08-17T16:56:59.289Z,0.45
2022-08-17T16:59:30.855Z,0.40
2022-08-17T17:02:04.982Z,0.40
2022-08-17T17:04:35.054Z,0.45
2022-08-17T17:07:34.397Z,0.57
2022-08-17T17:10:14.333Z,0.40
2022-08-17T17:13:03.695Z,0.30
2022-08-17T17:15:39.770Z,0.20
2022-08-17T17:18:12.760Z,0.40
2022-08-17T17:21:12.370Z,0.77
2022-08-17T17:23:53.624Z,0.43
2022-08-17T17:26:23.874Z,0.30
2022-08-17T17:29:29.240Z,0.30
2022-08-17T17:32:40.690Z,0.50
2022-08-17T17:35:23.011Z,0.30
2022-08-17T17:37:52.155Z,0.40
2022-08-17T17:40:44.422Z,0.55
2022-08-17T17:43:37.846Z,0.40
2022-08-17T17:46:27.192Z,0.50
2022-08-17T17:48:57.091Z,0.50
2022-08-17T17:52:06.745Z,0.40
2022-08-17T17:54:36.976Z,0.40
2022-08-17T17:57:21.424Z,0.40
2022-08-17T18:00:04.438Z,0.60
2022-08-17T18:02:51.774Z,1.02
2022-08-17T18:05:46.509Z,0.70
2022-08-17T18:08:16.465Z,0.52
2022-08-17T18:10:58.112Z,2.08
2022-08-17T18:13:37.048Z,5.05
2022-08-17T18:16:06.833Z,4.70
2022-08-17T18:18:39.205Z,3.05
2022-08-17T18:21:15.811Z,1.90
2022-08-17T18:24:04.458Z,1.58
2022-08-17T18:26:42.087Z,2.22
2022-08-17T18:29:21.200Z,3.25
2022-08-17T18:31:48.329Z,1.90
2022-08-17T18:34:46.408Z,2.45
2022-08-17T18:37:30.119Z,2.55
2022-08-17T18:39:57.382Z,1.73
2022-08-17T18:42:29.167Z,1.20
2022-08-17T18:44:56.354Z,0.95
2022-08-17T18:47:28.672Z,1.25
2022-08-17T18:49:59.250Z,0.88
2022-08-17T18:52:30.709Z,0.70
2022-08-17T18:55:12.451Z,0.70
2022-08-17T18:57:45.822Z,0.47
2022-08-17T19:00:40.658Z,0.77
2022-08-17T19:03:28.582Z,0.43
2022-08-17T19:06:31.409Z,0.30
2022-08-17T19:08:59.599Z,0.80
2022-08-17T19:11:30.701Z,0.55
2022-08-17T19:14:06.753Z,0.63
2022-08-17T19:16:59.390Z,0.43
2022-08-17T19:19:31.142Z,0.43
2022-08-17T19:22:28.781Z,0.32
2022-08-17T19:25:09.301Z,0.50
2022-08-17T19:28:06.203Z,0.90
2022-08-17T19:30:50.544Z,1.02
2022-08-17T19:33:17.559Z,0.65
2022-08-17T19:36:29.524Z,0.60
2022-08-17T19:39:20.221Z,0.65
2022-08-17T19:42:03.260Z,0.55
2022-08-17T19:44:32.285Z,0.52
2022-08-17T19:47:53.253Z,0.73
2022-08-17T19:50:43.850Z,0.40
2022-08-17T19:53:47.812Z,0.32
2022-08-17T19:56:31.778Z,0.60
2022-08-17T19:59:07.922Z,0.63
2022-08-17T20:01:45.159Z,1.45
2022-08-17T20:04:35.673Z,1.70
2022-08-17T20:07:26.351Z,1.30
2022-08-17T20:10:02.724Z,2.08
2022-08-17T20:15:05.926Z,1.50
2022-08-17T20:17:40.365Z,0.80
2022-08-17T20:20:35.111Z,0.80
2022-08-17T20:23:22.549Z,0.80
2022-08-17T20:26:19.057Z,0.82
2022-08-17T20:29:07.201Z,1.05
2022-08-17T20:31:49.787Z,0.93
2022-08-17T20:34:36.999Z,1.00
2022-08-17T20:37:15.704Z,0.77
2022-08-17T20:39:50.555Z,0.80
2022-08-17T20:42:20.601Z,0.50
2022-08-17T20:44:50.180Z,0.30
2022-08-17T20:47:27.583Z,0.68
2022-08-17T20:50:26.953Z,0.60
2022-08-17T20:53:00.978Z,0.50
2022-08-17T20:55:53.219Z,0.40
2022-08-17T20:58:30.624Z,0.57
2022-08-17T21:00:59.126Z,0.57
2022-08-17T21:03:39.993Z,0.73
2022-08-17T21:06:18.856Z,0.50
2022-08-17T21:08:54.662Z,0.47
2022-08-17T21:12:03.937Z,1.02
2022-08-17T21:14:56.306Z,0.60
2022-08-17T21:17:35.741Z,0.93
2022-08-17T21:20:21.529Z,0.43
2022-08-17T21:23:00.373Z,0.60
2022-08-17T21:25:48.400Z,0.55
2022-08-17T21:28:34.669Z,0.40
2022-08-17T21:31:09.160Z,0.90
2022-08-17T21:33:40.190Z,0.52
2022-08-17T21:36:13.890Z,0.50
2022-08-17T21:38:56.975Z,0.60
2022-08-17T21:41:33.580Z,0.77
2022-08-17T21:44:37.107Z,0.40
2022-08-17T21:47:26.620Z,0.90
2022-08-17T21:49:55.351Z,0.50
2022-08-17T21:52:26.973Z,0.38
2022-08-17T21:54:57.423Z,0.80
2022-08-17T21:57:28.947Z,0.50
2022-08-17T22:00:00.084Z,0.50
2022-08-17T22:02:38.275Z,0.55
2022-08-17T22:05:08.077Z,0.25
2022-08-17T22:07:50.727Z,0.30
2022-08-17T22:10:40.586Z,0.40
2022-08-17T22:13:18.085Z,0.38
2022-08-17T22:15:49.835Z,0.40
2022-08-17T22:18:27.577Z,0.50
2022-08-17T22:20:58.089Z,0.65
2022-08-17T22:23:54.735Z,0.55
2022-08-17T22:26:24.554Z,0.40
2022-08-17T22:28:56.549Z,0.38
2022-08-17T22:31:29.640Z,0.73
2022-08-17T22:33:59.991Z,0.30
2022-08-17T22:36:39.159Z,0.50
2022-08-17T22:39:09.134Z,0.30
2022-08-17T22:41:36.084Z,0.50
2022-08-17T22:44:18.051Z,0.52
2022-08-17T22:47:11.674Z,0.30
2022-08-17T22:49:53.321Z,0.30
2022-08-17T22:52:56.222Z,0.30
2022-08-17T22:55:42.889Z,0.40
2022-08-17T22:58:35.312Z,0.40
2022-08-17T23:01:32.739Z,0.60
2022-08-17T23:06:36.811Z,0.70
2022-08-17T23:09:06.887Z,0.60
2022-08-17T23:11:49.527Z,0.63
2022-08-17T23:14:21.609Z,0.90
2022-08-17T23:16:50.413Z,0.85
2022-08-17T23:19:22.029Z,0.55
2022-08-17T23:21:55.444Z,0.63
2022-08-17T23:24:28.597Z,0.47
2022-08-17T23:26:59.810Z,0.50
2022-08-17T23:29:29.566Z,0.50
2022-08-17T23:32:00.069Z,0.68
2022-08-17T23:34:28.551Z,0.40
2022-08-17T23:36:55.844Z,0.35
2022-08-17T23:39:28.565Z,0.50
2022-08-17T23:42:00.306Z,0.38
2022-08-17T23:44:28.972Z,0.30
2022-08-17T23:46:57.145Z,0.30
2022-08-17T23:49:25.295Z,0.40
2022-08-17T23:51:54.819Z,0.50
2022-08-17T23:54:24.945Z,0.30
2022-08-17T23:56:51.939Z,0.90
2022-08-17T23:59:22.271Z,0.43
